Time;durP1;ratioP1;P1;durP2;ratioP2;P2;SDS_P1;SDS_P2;PMS_P1;PMS_P2;Temp;Humidity;BMP_temperature;BMP_pressure;BME280_temperature;BME280_humidity;BME280_pressure;Samples;Min_cycle;Max_cycle;Signal;HPM_P1;HPM_P2
2023/12/18 00:02:25;;;;;;;29.83;12.68;;;;;;;;;;5071600;28;20082;-85
2023/12/18 00:05:09;;;;;;;31.05;11.55;;;;;;;;;;5057799;28;20090;-85
2023/12/18 00:07:54;;;;;;;26.73;11.10;;;;;;;;;;5068388;28;20209;-85
2023/12/18 00:10:39;;;;;;;28.90;12.07;;;;;;;;;;5072274;28;20406;-85
2023/12/18 00:13:23;;;;;;;29.65;11.30;;;;;;;;;;5071987;28;20052;-83
2023/12/18 00:16:08;;;;;;;35.70;13.88;;;;;;;;;;5071909;28;20043;-84
2023/12/18 00:18:53;;;;;;;29.30;11.77;;;;;;;;;;5060600;28;20055;-84
2023/12/18 00:21:38;;;;;;;32.72;12.38;;;;;;;;;;5071630;28;20125;-85
2023/12/18 00:24:22;;;;;;;30.35;12.50;;;;;;;;;;5072241;28;20086;-85
2023/12/18 00:27:07;;;;;;;35.70;13.27;;;;;;;;;;5071588;28;20086;-84
2023/12/18 00:29:51;;;;;;;30.80;12.90;;;;;;;;;;5072038;28;20044;-85
2023/12/18 00:32:36;;;;;;;24.90;12.15;;;;;;;;;;5071267;28;20158;-86
2023/12/18 00:35:20;;;;;;;33.35;13.25;;;;;;;;;;5072212;28;20128;-85
2023/12/18 00:38:05;;;;;;;29.58;12.23;;;;;;;;;;5072145;28;20123;-83
2023/12/18 00:40:49;;;;;;;29.67;12.63;;;;;;;;;;5071295;28;20059;-84
2023/12/18 00:43:34;;;;;;;31.05;12.27;;;;;;;;;;5056001;28;20552;-84
2023/12/18 00:46:18;;;;;;;27.35;11.73;;;;;;;;;;5071576;28;20089;-85
2023/12/18 00:49:03;;;;;;;26.42;11.38;;;;;;;;;;5071347;28;20051;-84
2023/12/18 00:51:47;;;;;;;29.85;12.27;;;;;;;;;;5070587;28;20107;-85
2023/12/18 00:54:32;;;;;;;24.70;11.73;;;;;;;;;;5071303;28;20101;-85
2023/12/18 00:57:17;;;;;;;31.05;11.13;;;;;;;;;;5056910;28;20404;-85
2023/12/18 01:00:01;;;;;;;29.52;11.85;;;;;;;;;;5058835;28;20098;-85
2023/12/18 01:02:46;;;;;;;30.83;11.82;;;;;;;;;;5071247;28;20098;-84
2023/12/18 01:05:32;;;;;;;27.63;11.35;;;;;;;;;;5071071;28;20492;-85
2023/12/18 01:08:17;;;;;;;31.35;12.15;;;;;;;;;;5071548;28;20139;-85
2023/12/18 01:11:01;;;;;;;32.78;11.30;;;;;;;;;;5071779;28;20178;-85
2023/12/18 01:13:46;;;;;;;28.80;11.15;;;;;;;;;;5056126;28;20154;-84
2023/12/18 01:16:30;;;;;;;34.33;11.98;;;;;;;;;;5055995;28;20132;-85
2023/12/18 01:19:15;;;;;;;30.60;11.68;;;;;;;;;;5071422;28;20113;-85
2023/12/18 01:22:00;;;;;;;23.52;10.63;;;;;;;;;;5071264;28;20401;-86
2023/12/18 01:24:44;;;;;;;28.52;11.57;;;;;;;;;;5055735;28;20043;-85
2023/12/18 01:27:29;;;;;;;23.05;10.77;;;;;;;;;;5056325;28;20166;-84
2023/12/18 01:30:14;;;;;;;24.13;11.25;;;;;;;;;;5071260;28;20048;-85
2023/12/18 01:32:58;;;;;;;27.85;11.65;;;;;;;;;;5071183;28;20079;-85
2023/12/18 01:35:43;;;;;;;40.88;11.45;;;;;;;;;;5070889;28;20036;-86
2023/12/18 01:38:28;;;;;;;25.25;10.98;;;;;;;;;;5071150;28;20044;-85
2023/12/18 01:41:12;;;;;;;29.40;11.00;;;;;;;;;;5070948;28;20109;-85
2023/12/18 01:43:57;;;;;;;32.95;11.48;;;;;;;;;;5070666;28;20059;-85
2023/12/18 01:46:41;;;;;;;24.77;9.90;;;;;;;;;;5055753;28;20047;-85
2023/12/18 01:49:26;;;;;;;24.25;11.32;;;;;;;;;;5070270;28;20056;-85
2023/12/18 01:52:10;;;;;;;22.55;9.57;;;;;;;;;;5067807;28;20098;-85
2023/12/18 01:54:57;;;;;;;32.28;11.88;;;;;;;;;;5070685;28;20046;-84
2023/12/18 01:57:42;;;;;;;26.60;10.18;;;;;;;;;;5070656;28;20556;-85
2023/12/18 02:00:27;;;;;;;29.08;12.27;;;;;;;;;;5071226;28;20044;-85
2023/12/18 02:03:11;;;;;;;28.73;12.50;;;;;;;;;;5075114;28;20040;-85
2023/12/18 02:05:57;;;;;;;22.48;10.60;;;;;;;;;;5074664;28;20066;-85
2023/12/18 02:08:42;;;;;;;28.92;11.27;;;;;;;;;;5074571;28;20058;-85
2023/12/18 02:11:26;;;;;;;31.33;10.90;;;;;;;;;;5074935;28;20112;-85
2023/12/18 02:14:11;;;;;;;26.52;11.93;;;;;;;;;;5075095;28;20060;-85
2023/12/18 02:16:56;;;;;;;29.88;11.65;;;;;;;;;;5074364;28;20039;-84
2023/12/18 02:19:41;;;;;;;29.73;11.45;;;;;;;;;;5074274;28;20082;-85
2023/12/18 02:22:26;;;;;;;32.53;11.70;;;;;;;;;;5074986;28;20040;-85
2023/12/18 02:25:10;;;;;;;28.20;11.30;;;;;;;;;;5074699;28;20032;-85
2023/12/18 02:27:55;;;;;;;28.45;11.55;;;;;;;;;;5074275;28;20106;-84
2023/12/18 02:30:40;;;;;;;21.08;10.85;;;;;;;;;;5059754;28;20073;-85
2023/12/18 02:33:24;;;;;;;31.85;13.32;;;;;;;;;;5074456;28;20043;-86
2023/12/18 02:36:09;;;;;;;30.40;11.82;;;;;;;;;;5074418;28;20048;-85
2023/12/18 02:38:53;;;;;;;32.38;12.15;;;;;;;;;;5073787;28;20047;-85
2023/12/18 02:41:38;;;;;;;32.67;13.35;;;;;;;;;;5074198;28;20536;-85
2023/12/18 02:44:23;;;;;;;35.60;20.98;;;;;;;;;;5074380;28;20046;-85
2023/12/18 02:47:07;;;;;;;54.40;33.08;;;;;;;;;;5073622;28;20527;-84
2023/12/18 02:49:52;;;;;;;56.90;35.55;;;;;;;;;;5073639;28;20051;-85
2023/12/18 02:52:37;;;;;;;54.00;29.88;;;;;;;;;;5074300;28;20094;-85
2023/12/18 02:55:22;;;;;;;48.50;28.80;;;;;;;;;;5074023;28;20036;-85
2023/12/18 02:58:06;;;;;;;54.20;31.48;;;;;;;;;;5058552;28;20082;-84
2023/12/18 03:00:51;;;;;;;58.95;29.95;;;;;;;;;;5073488;28;20123;-85
2023/12/18 03:03:36;;;;;;;44.15;25.83;;;;;;;;;;5058555;28;20039;-85
2023/12/18 03:06:21;;;;;;;39.40;16.05;;;;;;;;;;5074038;28;20062;-85
2023/12/18 03:09:05;;;;;;;39.38;16.05;;;;;;;;;;5073286;28;20271;-85
2023/12/18 03:11:50;;;;;;;25.00;12.50;;;;;;;;;;5073402;28;20146;-85
2023/12/18 03:14:34;;;;;;;28.83;12.18;;;;;;;;;;5058378;28;20039;-86
2023/12/18 03:17:19;;;;;;;33.20;11.90;;;;;;;;;;5073765;28;20044;-85
2023/12/18 03:20:03;;;;;;;36.40;14.68;;;;;;;;;;5073233;28;20063;-86
2023/12/18 03:22:48;;;;;;;41.15;13.18;;;;;;;;;;5073394;28;20533;-85
2023/12/18 03:25:32;;;;;;;30.45;13.50;;;;;;;;;;5073768;28;20492;-85
2023/12/18 03:28:18;;;;;;;33.35;13.63;;;;;;;;;;5073684;28;20052;-85
2023/12/18 03:31:02;;;;;;;30.08;11.93;;;;;;;;;;5072964;28;20515;-86
2023/12/18 03:33:47;;;;;;;34.75;14.55;;;;;;;;;;5073346;28;20399;-85
2023/12/18 03:36:31;;;;;;;27.48;12.20;;;;;;;;;;5058299;28;20039;-85
2023/12/18 03:39:16;;;;;;;30.70;13.07;;;;;;;;;;5057903;28;20094;-85
2023/12/18 03:42:00;;;;;;;28.73;12.73;;;;;;;;;;5057548;28;20055;-85
2023/12/18 03:44:46;;;;;;;30.77;12.60;;;;;;;;;;5073047;28;20108;-85
2023/12/18 03:47:31;;;;;;;31.40;11.50;;;;;;;;;;5073399;28;20044;-85
2023/12/18 03:50:15;;;;;;;28.38;12.50;;;;;;;;;;5072658;28;20186;-85
2023/12/18 03:53:00;;;;;;;27.08;12.07;;;;;;;;;;5072503;28;20085;-86
2023/12/18 03:55:45;;;;;;;26.88;11.93;;;;;;;;;;5073511;28;20533;-86
2023/12/18 03:58:29;;;;;;;23.08;10.30;;;;;;;;;;5073092;28;20046;-85
2023/12/18 04:01:14;;;;;;;24.65;11.35;;;;;;;;;;5072672;28;20054;-85
2023/12/18 04:03:58;;;;;;;24.10;11.10;;;;;;;;;;5057395;28;20586;-85
2023/12/18 04:06:43;;;;;;;25.30;11.52;;;;;;;;;;5073099;28;20158;-85
2023/12/18 04:09:28;;;;;;;29.02;10.68;;;;;;;;;;5073131;28;20052;-86
2023/12/18 04:12:12;;;;;;;22.40;10.65;;;;;;;;;;5072284;28;20107;-86
2023/12/18 04:14:57;;;;;;;25.08;11.10;;;;;;;;;;5072250;28;20040;-85
2023/12/18 04:17:41;;;;;;;24.67;10.30;;;;;;;;;;5072772;28;20111;-86
2023/12/18 04:20:26;;;;;;;27.23;11.43;;;;;;;;;;5072577;28;20094;-85
2023/12/18 04:23:11;;;;;;;21.17;10.98;;;;;;;;;;5057135;28;20119;-85
2023/12/18 04:25:55;;;;;;;24.25;10.80;;;;;;;;;;5071622;28;20047;-85
2023/12/18 04:28:40;;;;;;;25.00;11.93;;;;;;;;;;5072712;28;20094;-85
2023/12/18 04:31:25;;;;;;;28.23;12.18;;;;;;;;;;5061479;28;20040;-86
2023/12/18 04:34:10;;;;;;;23.75;11.90;;;;;;;;;;5071823;28;20035;-86
2023/12/18 04:36:55;;;;;;;26.15;13.15;;;;;;;;;;5072490;28;20070;-85
2023/12/18 04:39:39;;;;;;;24.98;13.15;;;;;;;;;;5072311;28;20051;-85
2023/12/18 04:42:24;;;;;;;29.33;13.50;;;;;;;;;;5071681;28;20106;-85
2023/12/18 04:45:09;;;;;;;23.40;11.98;;;;;;;;;;5071534;28;20036;-85
2023/12/18 04:47:53;;;;;;;28.35;14.20;;;;;;;;;;5071877;28;20110;-85
2023/12/18 04:50:38;;;;;;;31.45;13.70;;;;;;;;;;5072066;28;20043;-85
2023/12/18 04:53:23;;;;;;;34.97;13.70;;;;;;;;;;5071429;28;20575;-85
2023/12/18 04:56:07;;;;;;;32.03;13.18;;;;;;;;;;5071748;28;20040;-85
2023/12/18 04:58:52;;;;;;;26.25;13.57;;;;;;;;;;5071956;28;20078;-85
2023/12/18 05:01:37;;;;;;;28.35;14.13;;;;;;;;;;5071702;28;20036;-84
2023/12/18 05:04:21;;;;;;;28.80;13.55;;;;;;;;;;5071393;28;20035;-86
2023/12/18 05:07:07;;;;;;;34.42;14.52;;;;;;;;;;5071137;28;20546;-86
2023/12/18 05:09:52;;;;;;;29.27;13.65;;;;;;;;;;5071811;28;20101;-86
2023/12/18 05:12:37;;;;;;;27.50;14.38;;;;;;;;;;5071943;28;20399;-86
2023/12/18 05:15:22;;;;;;;38.55;16.33;;;;;;;;;;5071226;28;20416;-86
2023/12/18 05:18:06;;;;;;;30.75;14.10;;;;;;;;;;5070997;28;20527;-85
2023/12/18 05:20:53;;;;;;;27.65;12.63;;;;;;;;;;5071467;28;20094;-86
2023/12/18 05:23:38;;;;;;;25.92;12.73;;;;;;;;;;5056559;28;20086;-85
2023/12/18 05:26:22;;;;;;;33.10;13.73;;;;;;;;;;5071128;28;20130;-85
2023/12/18 05:29:07;;;;;;;30.08;12.82;;;;;;;;;;5070852;28;20408;-84
2023/12/18 05:31:52;;;;;;;26.55;12.93;;;;;;;;;;5071562;28;20039;-86
2023/12/18 05:34:36;;;;;;;28.70;12.45;;;;;;;;;;5058403;28;20031;-86
2023/12/18 05:37:21;;;;;;;23.08;13.07;;;;;;;;;;5070495;28;20062;-87
2023/12/18 05:40:06;;;;;;;23.13;11.80;;;;;;;;;;5071239;28;20060;-85
2023/12/18 05:42:51;;;;;;;28.65;13.15;;;;;;;;;;5056089;28;20124;-85
2023/12/18 05:45:35;;;;;;;32.22;14.23;;;;;;;;;;5070916;28;20055;-85
2023/12/18 05:48:20;;;;;;;28.67;11.45;;;;;;;;;;5070553;28;20044;-85
2023/12/18 05:51:05;;;;;;;28.20;11.85;;;;;;;;;;5067115;28;20548;-85
2023/12/18 05:53:50;;;;;;;28.25;12.25;;;;;;;;;;5071407;28;20147;-85
2023/12/18 05:56:34;;;;;;;27.15;12.00;;;;;;;;;;5070902;28;20040;-85
2023/12/18 05:59:19;;;;;;;29.27;12.70;;;;;;;;;;5070735;28;20409;-85
2023/12/18 06:02:04;;;;;;;29.45;11.60;;;;;;;;;;5071061;28;20039;-84
2023/12/18 06:04:49;;;;;;;23.83;12.43;;;;;;;;;;5056065;28;20123;-85
2023/12/18 06:07:33;;;;;;;26.50;11.18;;;;;;;;;;5055588;28;20477;-85
2023/12/18 06:10:18;;;;;;;23.92;12.45;;;;;;;;;;5070334;28;20146;-85
2023/12/18 06:13:03;;;;;;;29.85;12.27;;;;;;;;;;5071126;28;20044;-85
2023/12/18 06:15:48;;;;;;;27.35;12.20;;;;;;;;;;5071124;28;20040;-85
2023/12/18 06:18:32;;;;;;;28.73;12.32;;;;;;;;;;5070205;28;20043;-85
2023/12/18 06:21:17;;;;;;;37.72;12.98;;;;;;;;;;5070504;28;20120;-84
2023/12/18 06:24:01;;;;;;;29.25;12.60;;;;;;;;;;5055424;28;20062;-84
2023/12/18 06:26:46;;;;;;;28.25;12.85;;;;;;;;;;5071119;28;20043;-85
2023/12/18 06:29:30;;;;;;;26.67;12.43;;;;;;;;;;5068754;28;20094;-84
2023/12/18 06:32:15;;;;;;;33.72;12.93;;;;;;;;;;5052243;28;20052;-84
2023/12/18 06:34:59;;;;;;;22.80;13.15;;;;;;;;;;5057548;28;20420;-84
2023/12/18 06:37:45;;;;;;;28.63;13.30;;;;;;;;;;5054305;28;20079;-85
2023/12/18 06:40:29;;;;;;;23.67;12.10;;;;;;;;;;5056240;28;20094;-85
2023/12/18 06:43:13;;;;;;;29.10;12.82;;;;;;;;;;5062912;28;20484;-85
2023/12/18 06:45:59;;;;;;;27.48;11.88;;;;;;;;;;5048241;28;20506;-84
2023/12/18 06:48:44;;;;;;;26.50;12.77;;;;;;;;;;5072573;28;20408;-85
2023/12/18 06:51:28;;;;;;;31.20;12.68;;;;;;;;;;5058588;28;20059;-86
2023/12/18 06:54:14;;;;;;;22.27;12.25;;;;;;;;;;5074375;28;20121;-86
2023/12/18 06:56:59;;;;;;;30.85;12.98;;;;;;;;;;5074051;28;20495;-85
2023/12/18 06:59:43;;;;;;;24.27;13.32;;;;;;;;;;5073003;28;20094;-85
2023/12/18 07:02:28;;;;;;;25.00;12.50;;;;;;;;;;5056695;28;20047;-85
2023/12/18 07:05:16;;;;;;;28.00;13.43;;;;;;;;;;5068109;28;20071;-86
2023/12/18 07:08:00;;;;;;;27.90;13.80;;;;;;;;;;5065527;28;20043;-85
2023/12/18 07:10:45;;;;;;;28.02;13.80;;;;;;;;;;5056401;28;20067;-85
2023/12/18 07:13:30;;;;;;;28.50;13.48;;;;;;;;;;5069520;28;20058;-85
2023/12/18 07:16:21;;;;;;;27.08;13.60;;;;;;;;;;5042329;28;20063;-85
2023/12/18 07:19:05;;;;;;;28.40;13.45;;;;;;;;;;5057455;28;20128;-84
2023/12/18 07:21:50;;;;;;;30.40;14.35;;;;;;;;;;5061115;28;20086;-85
2023/12/18 07:24:34;;;;;;;28.15;14.43;;;;;;;;;;5064893;28;20163;-84
2023/12/18 07:27:19;;;;;;;24.73;12.90;;;;;;;;;;5057407;28;20036;-84
2023/12/18 07:30:04;;;;;;;25.58;14.45;;;;;;;;;;5060012;28;20086;-84
2023/12/18 07:32:48;;;;;;;27.58;13.68;;;;;;;;;;5058795;28;20413;-84
2023/12/18 07:35:33;;;;;;;31.00;13.40;;;;;;;;;;5059994;28;20082;-83
2023/12/18 07:38:17;;;;;;;39.60;17.45;;;;;;;;;;5064222;28;20526;-84
2023/12/18 07:41:05;;;;;;;32.42;14.55;;;;;;;;;;5063293;28;20055;-86
2023/12/18 07:43:50;;;;;;;26.92;12.93;;;;;;;;;;5059544;28;20035;-86
2023/12/18 07:46:35;;;;;;;32.45;14.50;;;;;;;;;;5070867;28;20078;-86
2023/12/18 07:49:19;;;;;;;35.75;15.93;;;;;;;;;;5073606;28;20051;-86
2023/12/18 07:52:04;;;;;;;33.97;15.40;;;;;;;;;;5073981;28;20040;-87
2023/12/18 07:54:49;;;;;;;26.58;14.32;;;;;;;;;;5073212;28;20116;-86
2023/12/18 07:57:33;;;;;;;35.78;15.52;;;;;;;;;;5038352;28;20040;-86
2023/12/18 08:00:18;;;;;;;26.27;13.60;;;;;;;;;;5071601;28;20102;-86
2023/12/18 08:03:03;;;;;;;31.38;14.50;;;;;;;;;;5073616;28;20075;-85
2023/12/18 08:05:48;;;;;;;32.97;15.32;;;;;;;;;;5072565;28;20032;-85
2023/12/18 08:08:32;;;;;;;30.50;15.77;;;;;;;;;;5070281;28;20133;-84
2023/12/18 08:11:17;;;;;;;33.53;17.35;;;;;;;;;;5072527;28;20054;-84
2023/12/18 08:14:01;;;;;;;36.05;15.38;;;;;;;;;;5066638;28;20397;-82
2023/12/18 08:16:46;;;;;;;35.00;14.38;;;;;;;;;;5056681;28;20035;-83
2023/12/18 08:19:31;;;;;;;37.78;14.60;;;;;;;;;;5055861;28;20083;-87
2023/12/18 08:22:16;;;;;;;32.92;14.48;;;;;;;;;;5057542;28;20592;-85
2023/12/18 08:25:00;;;;;;;45.90;16.50;;;;;;;;;;5060919;28;20538;-87
2023/12/18 08:27:45;;;;;;;27.70;14.43;;;;;;;;;;5064893;28;20040;-85
2023/12/18 08:30:30;;;;;;;29.88;15.07;;;;;;;;;;5057459;28;20039;-84
2023/12/18 08:33:15;;;;;;;39.38;15.45;;;;;;;;;;5080547;28;20039;-86
2023/12/18 08:35:59;;;;;;;41.67;15.98;;;;;;;;;;5059104;28;20083;-85
2023/12/18 08:38:44;;;;;;;39.42;16.23;;;;;;;;;;5065100;28;20094;-84
2023/12/18 08:41:28;;;;;;;30.33;15.30;;;;;;;;;;5067627;28;20098;-85
2023/12/18 08:44:13;;;;;;;36.63;16.85;;;;;;;;;;5064665;28;20512;-85
2023/12/18 08:46:58;;;;;;;33.30;17.45;;;;;;;;;;5057587;28;20107;-84
2023/12/18 08:49:43;;;;;;;35.70;17.75;;;;;;;;;;5067473;28;20516;-85
2023/12/18 08:52:27;;;;;;;32.17;17.90;;;;;;;;;;5063643;28;20082;-85
2023/12/18 08:55:12;;;;;;;35.70;19.98;;;;;;;;;;5060033;28;20036;-86
2023/12/18 08:57:56;;;;;;;36.97;19.75;;;;;;;;;;5058636;28;20044;-85
2023/12/18 09:00:41;;;;;;;32.10;19.13;;;;;;;;;;5047856;28;20528;-87
2023/12/18 09:03:25;;;;;;;37.50;18.70;;;;;;;;;;5056650;28;20491;-85
2023/12/18 09:06:10;;;;;;;36.03;20.50;;;;;;;;;;5053271;28;20040;-86
2023/12/18 09:08:55;;;;;;;38.83;18.83;;;;;;;;;;5052341;28;20098;-85
2023/12/18 09:11:39;;;;;;;38.03;20.60;;;;;;;;;;5053117;28;20079;-86
2023/12/18 09:14:24;;;;;;;33.70;17.98;;;;;;;;;;5046789;28;20115;-85
2023/12/18 09:17:08;;;;;;;40.10;19.17;;;;;;;;;;5038944;28;20035;-85
2023/12/18 09:19:53;;;;;;;40.20;19.27;;;;;;;;;;5053165;28;20512;-86
2023/12/18 09:22:37;;;;;;;32.30;18.55;;;;;;;;;;5073578;28;20032;-85
2023/12/18 09:25:22;;;;;;;34.88;17.52;;;;;;;;;;5043950;28;20158;-84
2023/12/18 09:28:07;;;;;;;35.35;19.67;;;;;;;;;;5054202;28;20563;-86
2023/12/18 09:30:51;;;;;;;37.17;20.23;;;;;;;;;;5053531;28;20044;-85
2023/12/18 09:33:36;;;;;;;34.70;19.90;;;;;;;;;;5079906;28;20071;-85
2023/12/18 09:36:20;;;;;;;33.35;19.10;;;;;;;;;;5049778;28;20048;-85
2023/12/18 09:39:05;;;;;;;35.67;19.17;;;;;;;;;;5055398;28;20075;-86
2023/12/18 09:41:50;;;;;;;32.42;19.15;;;;;;;;;;5038454;28;20107;-86
2023/12/18 09:44:34;;;;;;;31.60;18.13;;;;;;;;;;5054781;28;20396;-86
2023/12/18 09:47:19;;;;;;;46.55;20.73;;;;;;;;;;5071010;28;20036;-86
2023/12/18 09:50:06;;;;;;;36.97;18.92;;;;;;;;;;5055914;28;20408;-87
2023/12/18 09:53:13;;;;;;;34.22;18.40;;;;;;;;;;5069454;28;20032;-87
2023/12/18 09:55:58;;;;;;;38.92;18.23;;;;;;;;;;5058052;28;20079;-88
2023/12/18 09:58:42;;;;;;;36.15;19.55;;;;;;;;;;5074469;28;20042;-85
2023/12/18 10:01:27;;;;;;;41.83;21.50;;;;;;;;;;5066199;28;20043;-87
2023/12/18 10:04:11;;;;;;;36.15;19.35;;;;;;;;;;5065775;28;20054;-87
2023/12/18 10:06:56;;;;;;;36.13;19.88;;;;;;;;;;5059662;28;20099;-87
2023/12/18 10:09:41;;;;;;;41.55;19.42;;;;;;;;;;5057041;28;20079;-86
2023/12/18 10:12:25;;;;;;;35.53;17.48;;;;;;;;;;5050333;28;20072;-87
2023/12/18 10:15:14;;;;;;;34.03;20.02;;;;;;;;;;5059109;28;20047;-87
2023/12/18 10:17:59;;;;;;;39.22;20.17;;;;;;;;;;5061563;28;20043;-85
2023/12/18 10:20:43;;;;;;;30.92;18.15;;;;;;;;;;5054812;28;20070;-86
2023/12/18 10:23:35;;;;;;;36.13;20.55;;;;;;;;;;5069955;28;20499;-86
2023/12/18 10:26:20;;;;;;;46.90;20.13;;;;;;;;;;5073393;28;20047;-86
2023/12/18 10:29:04;;;;;;;41.38;19.10;;;;;;;;;;5069514;28;20044;-86
2023/12/18 10:31:49;;;;;;;35.45;19.85;;;;;;;;;;5079940;28;20070;-87
2023/12/18 10:34:36;;;;;;;37.00;19.30;;;;;;;;;;5045544;28;20115;-86
2023/12/18 10:37:22;;;;;;;41.83;19.33;;;;;;;;;;5070382;28;20043;-85
2023/12/18 10:40:08;;;;;;;37.97;18.50;;;;;;;;;;5069499;28;20047;-86
2023/12/18 10:43:13;;;;;;;40.92;20.60;;;;;;;;;;5069152;28;20110;-86
2023/12/18 10:45:59;;;;;;;34.30;19.45;;;;;;;;;;5052303;28;20040;-85
2023/12/18 10:48:47;;;;;;;37.83;20.25;;;;;;;;;;5074070;28;20562;-86
2023/12/18 10:51:33;;;;;;;40.72;20.13;;;;;;;;;;5073964;28;20047;-86
2023/12/18 10:54:18;;;;;;;37.00;17.88;;;;;;;;;;5068423;28;20177;-86
2023/12/18 10:57:03;;;;;;;38.88;19.88;;;;;;;;;;5069843;28;20044;-86
2023/12/18 10:59:49;;;;;;;44.13;18.17;;;;;;;;;;5067619;28;20447;-85
2023/12/18 11:02:34;;;;;;;39.38;18.73;;;;;;;;;;5069395;28;20079;-86
2023/12/18 11:05:20;;;;;;;39.70;19.88;;;;;;;;;;5067976;28;20094;-86
2023/12/18 11:08:05;;;;;;;44.15;19.20;;;;;;;;;;5078873;28;20290;-86
2023/12/18 11:10:50;;;;;;;37.05;19.05;;;;;;;;;;5051764;28;20056;-86
2023/12/18 11:13:52;;;;;;;38.10;18.58;;;;;;;;;;5066143;28;20043;-87
2023/12/18 11:16:40;;;;;;;34.10;18.95;;;;;;;;;;5082969;28;20066;-87
2023/12/18 11:19:41;;;;;;;39.58;19.90;;;;;;;;;;5066227;28;20079;-87
2023/12/18 11:22:35;;;;;;;33.53;18.98;;;;;;;;;;5084924;28;20558;-86
2023/12/18 11:25:20;;;;;;;36.67;19.02;;;;;;;;;;5079283;28;20046;-87
2023/12/18 11:28:05;;;;;;;39.20;20.05;;;;;;;;;;5058548;28;20491;-87
2023/12/18 11:30:50;;;;;;;37.13;19.50;;;;;;;;;;5067515;28;20036;-85
2023/12/18 11:33:35;;;;;;;33.92;18.88;;;;;;;;;;5060020;28;20113;-82
2023/12/18 11:36:19;;;;;;;40.05;20.65;;;;;;;;;;5051021;28;20044;-81
2023/12/18 11:39:04;;;;;;;36.17;21.08;;;;;;;;;;5057426;28;20052;-87
2023/12/18 11:41:48;;;;;;;37.28;20.95;;;;;;;;;;5065576;28;20052;-86
2023/12/18 11:44:35;;;;;;;31.80;18.85;;;;;;;;;;5064394;28;20113;-86
2023/12/18 11:47:20;;;;;;;30.65;18.55;;;;;;;;;;5068452;28;20036;-85
2023/12/18 11:50:06;;;;;;;34.08;19.40;;;;;;;;;;5059676;28;20060;-88
2023/12/18 11:52:51;;;;;;;43.63;18.98;;;;;;;;;;5065141;28;20124;-84
2023/12/18 11:55:52;;;;;;;37.72;19.13;;;;;;;;;;5063552;28;20048;-86
2023/12/18 11:58:38;;;;;;;34.40;18.20;;;;;;;;;;5057946;28;20531;-87
2023/12/18 12:01:22;;;;;;;38.58;19.70;;;;;;;;;;5062039;28;20051;-87
2023/12/18 12:04:07;;;;;;;40.25;19.30;;;;;;;;;;5050168;28;20499;-87
2023/12/18 12:06:52;;;;;;;31.85;18.45;;;;;;;;;;5057955;28;20051;-87
2023/12/18 12:09:36;;;;;;;40.33;19.33;;;;;;;;;;5045220;28;20044;-86
2023/12/18 12:12:21;;;;;;;34.58;18.50;;;;;;;;;;5058010;28;20040;-87
2023/12/18 12:15:06;;;;;;;36.10;18.85;;;;;;;;;;5062376;28;20047;-85
2023/12/18 12:18:04;;;;;;;31.23;17.92;;;;;;;;;;5058409;28;20480;-85
2023/12/18 12:20:48;;;;;;;32.20;17.60;;;;;;;;;;5080919;28;20036;-86
2023/12/18 12:23:33;;;;;;;36.45;18.45;;;;;;;;;;5085237;28;20039;-85
2023/12/18 12:26:18;;;;;;;34.42;18.25;;;;;;;;;;5064262;28;20096;-86
2023/12/18 12:29:03;;;;;;;37.15;19.10;;;;;;;;;;5057554;28;20089;-85
2023/12/18 12:31:48;;;;;;;30.50;17.92;;;;;;;;;;5081824;28;20035;-86
2023/12/18 12:34:32;;;;;;;35.80;19.05;;;;;;;;;;5060801;28;20048;-86
2023/12/18 12:37:17;;;;;;;44.38;19.00;;;;;;;;;;5062123;28;20058;-86
2023/12/18 12:40:02;;;;;;;44.45;20.00;;;;;;;;;;5065438;28;20086;-86
2023/12/18 12:42:47;;;;;;;33.40;18.92;;;;;;;;;;5038509;28;20134;-86
2023/12/18 12:45:34;;;;;;;41.55;19.50;;;;;;;;;;5045980;28;20045;-86
2023/12/18 12:48:19;;;;;;;40.22;19.17;;;;;;;;;;5052142;28;20067;-86
2023/12/18 12:51:05;;;;;;;30.73;18.83;;;;;;;;;;5052362;28;20043;-85
2023/12/18 12:53:50;;;;;;;33.45;18.13;;;;;;;;;;5052876;28;20043;-86
2023/12/18 12:56:35;;;;;;;43.58;19.02;;;;;;;;;;5052491;28;20057;-86
2023/12/18 12:59:19;;;;;;;33.17;16.73;;;;;;;;;;5052029;28;20392;-86
2023/12/18 13:02:04;;;;;;;29.88;15.90;;;;;;;;;;5052354;28;20424;-87
2023/12/18 13:04:49;;;;;;;32.75;17.27;;;;;;;;;;5052580;28;20040;-86
2023/12/18 13:07:34;;;;;;;33.70;17.17;;;;;;;;;;5052525;28;20032;-86
2023/12/18 13:10:18;;;;;;;31.17;18.40;;;;;;;;;;5051742;28;20048;-86
2023/12/18 13:13:03;;;;;;;31.20;16.80;;;;;;;;;;5052529;28;20056;-85
2023/12/18 13:15:48;;;;;;;27.38;17.10;;;;;;;;;;5063756;28;20040;-85
2023/12/18 13:18:32;;;;;;;35.67;16.92;;;;;;;;;;5051852;28;20040;-86
2023/12/18 13:21:17;;;;;;;30.05;16.15;;;;;;;;;;5051879;28;20120;-86
2023/12/18 13:24:01;;;;;;;32.03;16.95;;;;;;;;;;5052172;28;20124;-86
2023/12/18 13:26:46;;;;;;;27.42;15.75;;;;;;;;;;5030964;28;20397;-87
2023/12/18 13:29:35;;;;;;;27.92;14.95;;;;;;;;;;5038751;28;20043;-86
2023/12/18 13:32:25;;;;;;;30.95;16.60;;;;;;;;;;5051315;28;20048;-86
2023/12/18 13:35:10;;;;;;;32.45;16.58;;;;;;;;;;5051186;28;20036;-85
2023/12/18 13:37:55;;;;;;;31.60;14.98;;;;;;;;;;5051495;28;20040;-86
2023/12/18 13:40:40;;;;;;;28.35;15.60;;;;;;;;;;5051132;28;20039;-86
2023/12/18 13:43:24;;;;;;;32.50;15.90;;;;;;;;;;5079305;28;20113;-86
2023/12/18 13:46:10;;;;;;;30.40;14.90;;;;;;;;;;5051719;28;20131;-84
2023/12/18 13:48:55;;;;;;;29.40;15.63;;;;;;;;;;5061770;28;20083;-87
2023/12/18 13:51:39;;;;;;;33.88;16.52;;;;;;;;;;5041149;28;20036;-85
2023/12/18 13:54:24;;;;;;;30.80;17.15;;;;;;;;;;5057099;28;20056;-85
2023/12/18 13:57:08;;;;;;;28.85;16.88;;;;;;;;;;5042495;28;20097;-87
2023/12/18 13:59:53;;;;;;;32.25;16.75;;;;;;;;;;5061867;28;20043;-86
2023/12/18 14:02:37;;;;;;;25.35;15.88;;;;;;;;;;5066877;28;20094;-86
2023/12/18 14:05:22;;;;;;;31.55;15.27;;;;;;;;;;5067200;28;20083;-86
2023/12/18 14:08:07;;;;;;;34.28;19.30;;;;;;;;;;5046800;28;20035;-88
2023/12/18 14:10:53;;;;;;;31.20;17.23;;;;;;;;;;5070174;28;20040;-87
2023/12/18 14:13:38;;;;;;;29.65;16.83;;;;;;;;;;5051466;28;20097;-86
2023/12/18 14:16:23;;;;;;;34.58;17.55;;;;;;;;;;5066513;28;20035;-88
2023/12/18 14:19:07;;;;;;;27.42;16.50;;;;;;;;;;5047887;28;20114;-85
2023/12/18 14:21:52;;;;;;;33.65;16.65;;;;;;;;;;5060971;28;20039;-87
2023/12/18 14:24:36;;;;;;;40.00;16.75;;;;;;;;;;5067595;28;20044;-86
2023/12/18 14:27:21;;;;;;;31.23;16.60;;;;;;;;;;5064551;28;20395;-87
2023/12/18 14:30:06;;;;;;;31.60;17.08;;;;;;;;;;5067503;28;20043;-85
2023/12/18 14:32:50;;;;;;;31.92;17.35;;;;;;;;;;5068395;28;20056;-85
2023/12/18 14:35:35;;;;;;;31.17;15.90;;;;;;;;;;5061784;28;20499;-85
2023/12/18 14:38:20;;;;;;;28.20;16.27;;;;;;;;;;5065187;28;20150;-84
2023/12/18 14:41:04;;;;;;;32.38;16.23;;;;;;;;;;5063605;28;20478;-86
2023/12/18 14:43:49;;;;;;;29.48;17.02;;;;;;;;;;5060872;28;20400;-84
2023/12/18 14:46:34;;;;;;;33.38;17.75;;;;;;;;;;5072697;28;20422;-86
2023/12/18 14:49:19;;;;;;;38.72;16.52;;;;;;;;;;5062777;28;20048;-87
2023/12/18 14:52:04;;;;;;;37.80;16.70;;;;;;;;;;5067280;28;20035;-85
2023/12/18 14:54:49;;;;;;;32.90;17.83;;;;;;;;;;5084042;28;20439;-84
2023/12/18 14:57:34;;;;;;;30.90;15.77;;;;;;;;;;5056716;28;20091;-84
2023/12/18 15:00:18;;;;;;;26.15;16.85;;;;;;;;;;5056669;28;20040;-85
2023/12/18 15:03:04;;;;;;;38.20;17.02;;;;;;;;;;5059315;28;20048;-84
2023/12/18 15:05:49;;;;;;;29.48;16.98;;;;;;;;;;5065307;28;20040;-87
2023/12/18 15:08:33;;;;;;;34.05;17.60;;;;;;;;;;5042583;28;20082;-86
2023/12/18 15:11:18;;;;;;;37.13;18.13;;;;;;;;;;5056555;28;20098;-85
2023/12/18 15:14:03;;;;;;;43.20;17.60;;;;;;;;;;5068761;28;20445;-84
2023/12/18 15:16:47;;;;;;;33.97;17.73;;;;;;;;;;5063506;28;20516;-86
2023/12/18 15:19:33;;;;;;;40.35;19.67;;;;;;;;;;5055754;28;20142;-87
2023/12/18 15:22:17;;;;;;;36.97;18.15;;;;;;;;;;5061325;28;20401;-86
2023/12/18 15:25:02;;;;;;;36.08;18.65;;;;;;;;;;5065152;28;20073;-86
2023/12/18 15:27:47;;;;;;;29.00;16.20;;;;;;;;;;5063828;28;20180;-86
2023/12/18 15:30:31;;;;;;;40.47;18.02;;;;;;;;;;5062952;28;20542;-85
2023/12/18 15:33:15;;;;;;;36.78;16.45;;;;;;;;;;5069752;28;20094;-85
2023/12/18 15:36:00;;;;;;;40.13;19.25;;;;;;;;;;5068295;28;20051;-86
2023/12/18 15:38:45;;;;;;;37.50;18.45;;;;;;;;;;5072061;28;20071;-86
2023/12/18 15:41:30;;;;;;;30.98;16.77;;;;;;;;;;5073656;28;20055;-85
2023/12/18 15:44:14;;;;;;;34.90;18.00;;;;;;;;;;5043191;28;20056;-86
2023/12/18 15:47:00;;;;;;;35.03;17.58;;;;;;;;;;5060790;28;20094;-86
2023/12/18 15:49:45;;;;;;;34.92;18.83;;;;;;;;;;5073376;28;20086;-87
2023/12/18 15:52:29;;;;;;;40.05;20.08;;;;;;;;;;5073878;28;20388;-85
2023/12/18 15:55:14;;;;;;;43.25;18.08;;;;;;;;;;5073412;28;20447;-86
2023/12/18 15:57:58;;;;;;;38.15;18.83;;;;;;;;;;5072614;28;20067;-86
2023/12/18 16:00:43;;;;;;;33.92;17.80;;;;;;;;;;5072298;28;20040;-87